Time;durP1;ratioP1;P1;durP2;ratioP2;P2;SDS_P1;SDS_P2;PMS_P1;PMS_P2;Temp;Humidity;BMP_temperature;BMP_pressure;BME280_temperature;BME280_humidity;BME280_pressure;Samples;Min_cycle;Max_cycle;Signal;HPM_P1;HPM_P2
2024/01/02 00:04:24;;;;;;;138.57;130.45;;;5.30;99.90;;;;;;12391233;28;20098;-36
2024/01/02 00:10:26;;;;;;;136.65;128.50;;;5.40;99.90;;;;;;12407034;28;20050;-35
2024/01/02 00:16:28;;;;;;;138.90;130.40;;;5.40;99.90;;;;;;12381266;28;20046;-35
2024/01/02 00:22:30;;;;;;;140.18;131.63;;;5.50;99.90;;;;;;12365008;28;20047;-34
2024/01/02 00:28:32;;;;;;;148.15;138.82;;;5.50;99.90;;;;;;12374338;28;20050;-35
2024/01/02 00:34:34;;;;;;;146.93;138.45;;;5.50;99.90;;;;;;12382355;28;20406;-35
2024/01/02 00:40:36;;;;;;;141.05;132.55;;;5.50;99.90;;;;;;12383670;28;20085;-34
2024/01/02 00:46:38;;;;;;;133.88;126.05;;;5.50;99.90;;;;;;12368435;28;20054;-35
2024/01/02 00:52:40;;;;;;;136.00;127.85;;;5.50;99.90;;;;;;12371820;28;20053;-34
2024/01/02 00:58:42;;;;;;;138.93;130.52;;;5.60;99.90;;;;;;12376718;28;20528;-35
2024/01/02 01:04:45;;;;;;;140.07;131.55;;;5.70;99.90;;;;;;12373686;28;20136;-35
2024/01/02 01:10:47;;;;;;;139.63;131.27;;;5.70;99.90;;;;;;12359141;28;20531;-35
2024/01/02 01:16:49;;;;;;;139.73;131.50;;;5.80;99.90;;;;;;12379918;28;20039;-35
2024/01/02 01:22:51;;;;;;;141.35;133.13;;;5.80;99.90;;;;;;12366218;28;20054;-34
2024/01/02 01:28:53;;;;;;;140.85;132.32;;;5.80;99.90;;;;;;12404607;28;20047;-35
2024/01/02 01:34:55;;;;;;;150.40;141.60;;;5.90;99.90;;;;;;12389839;28;20036;-35
2024/01/02 01:40:57;;;;;;;145.52;137.20;;;5.90;99.90;;;;;;12365973;28;20099;-35
2024/01/02 01:46:59;;;;;;;145.55;136.90;;;6.00;99.90;;;;;;12366817;28;20141;-35
2024/01/02 01:53:03;;;;;;;148.60;140.02;;;6.10;99.90;;;;;;12366031;28;20111;-35
2024/01/02 01:59:07;;;;;;;150.07;141.18;;;6.00;99.90;;;;;;12376497;28;20092;-34
2024/01/02 02:05:10;;;;;;;155.93;146.75;;;6.00;99.90;;;;;;12410906;28;20058;-34
2024/01/02 02:11:13;;;;;;;157.73;148.25;;;5.90;99.90;;;;;;12374140;28;20054;-35
2024/01/02 02:17:22;;;;;;;156.75;146.82;;;5.70;99.90;;;;;;12398975;28;20050;-34
2024/01/02 02:23:24;;;;;;;155.00;145.68;;;5.70;99.90;;;;;;12372234;28;20053;-35
2024/01/02 02:29:26;;;;;;;152.40;143.30;;;5.60;99.90;;;;;;12375131;28;20517;-34
2024/01/02 02:35:28;;;;;;;153.30;144.32;;;5.70;99.90;;;;;;12362215;28;20137;-35
2024/01/02 02:41:30;;;;;;;157.55;147.95;;;5.70;99.90;;;;;;12365623;28;20411;-34
2024/01/02 02:47:31;;;;;;;153.13;144.05;;;5.60;99.90;;;;;;12402301;28;20129;-34
2024/01/02 02:53:34;;;;;;;154.35;144.82;;;5.70;99.90;;;;;;12370868;28;20105;-34
2024/01/02 02:59:35;;;;;;;157.48;148.18;;;5.60;99.90;;;;;;12379476;28;20130;-35
2024/01/02 03:05:37;;;;;;;158.88;149.32;;;5.60;99.90;;;;;;12396262;28;20054;-35
2024/01/02 03:11:39;;;;;;;149.02;140.38;;;5.60;99.90;;;;;;12370939;28;20102;-35
2024/01/02 03:17:41;;;;;;;147.23;138.38;;;5.60;99.90;;;;;;12366986;28;20552;-34
2024/01/02 03:23:43;;;;;;;152.15;143.18;;;5.60;99.90;;;;;;12384341;28;20494;-35
2024/01/02 03:29:45;;;;;;;150.60;141.90;;;5.50;99.90;;;;;;12380884;28;20043;-34
2024/01/02 03:35:47;;;;;;;150.05;141.07;;;5.50;99.90;;;;;;12390654;28;20494;-34
2024/01/02 03:41:49;;;;;;;146.85;138.25;;;5.50;99.90;;;;;;12374160;28;20406;-34
2024/01/02 03:47:51;;;;;;;153.77;144.57;;;5.50;99.90;;;;;;12374625;28;20065;-35
2024/01/02 03:53:53;;;;;;;164.15;154.18;;;5.50;99.90;;;;;;12362962;28;20053;-34
2024/01/02 03:59:55;;;;;;;153.55;144.02;;;5.50;99.90;;;;;;12388289;28;20049;-35
2024/01/02 04:05:57;;;;;;;155.00;145.68;;;5.50;99.90;;;;;;12384177;28;20089;-35
2024/01/02 04:11:59;;;;;;;161.23;151.40;;;5.50;99.90;;;;;;12365234;28;21202;-35
2024/01/02 04:18:01;;;;;;;166.88;156.73;;;5.60;99.90;;;;;;12364638;28;20093;-35
2024/01/02 04:24:04;;;;;;;166.75;156.70;;;5.60;99.90;;;;;;12385560;28;20529;-35
2024/01/02 04:30:07;;;;;;;159.48;149.82;;;5.60;99.90;;;;;;12365584;28;20070;-34
2024/01/02 04:36:09;;;;;;;161.98;151.90;;;5.70;99.90;;;;;;12380231;28;20133;-35
2024/01/02 04:42:11;;;;;;;164.13;154.13;;;5.60;99.90;;;;;;12372907;28;20039;-34
2024/01/02 04:48:13;;;;;;;167.38;157.18;;;5.60;99.90;;;;;;12366767;28;20062;-35
2024/01/02 04:54:15;;;;;;;158.30;148.70;;;5.60;99.90;;;;;;12374264;28;20077;-35
2024/01/02 05:00:17;;;;;;;154.95;145.30;;;5.60;99.90;;;;;;12369171;28;20043;-35
2024/01/02 05:06:23;;;;;;;151.55;142.15;;;5.70;99.90;;;;;;12366560;28;20493;-35
2024/01/02 05:12:25;;;;;;;150.93;141.82;;;5.70;99.90;;;;;;12393246;28;20055;-35
2024/01/02 05:18:27;;;;;;;151.57;142.07;;;5.70;99.90;;;;;;12384294;28;20046;-35
2024/01/02 05:24:29;;;;;;;149.68;140.18;;;5.70;99.90;;;;;;12370958;28;20058;-35
2024/01/02 05:30:31;;;;;;;135.30;126.80;;;5.80;99.90;;;;;;12375976;28;20193;-34
2024/01/02 05:36:33;;;;;;;142.23;133.30;;;5.80;99.90;;;;;;12387025;28;20053;-35
2024/01/02 05:42:35;;;;;;;149.88;140.23;;;5.80;99.90;;;;;;12395349;28;20078;-35
2024/01/02 05:48:37;;;;;;;138.95;130.35;;;5.70;99.90;;;;;;12369213;28;20062;-34
2024/01/02 05:54:40;;;;;;;127.15;119.70;;;5.60;99.90;;;;;;12355946;28;20506;-35
2024/01/02 06:00:42;;;;;;;131.52;123.63;;;5.70;99.90;;;;;;12363948;28;20050;-35
2024/01/02 06:06:44;;;;;;;114.88;108.15;;;5.70;99.90;;;;;;12370091;28;20140;-35
2024/01/02 06:12:46;;;;;;;116.40;109.28;;;5.60;99.90;;;;;;12377856;28;20665;-35
2024/01/02 06:18:48;;;;;;;113.93;106.93;;;5.70;99.90;;;;;;12375651;28;20490;-34
2024/01/02 06:24:50;;;;;;;119.53;112.20;;;5.60;99.90;;;;;;12377010;28;20489;-35
2024/01/02 06:30:51;;;;;;;109.20;102.40;;;5.60;99.90;;;;;;12362933;28;20470;-35
2024/01/02 06:36:53;;;;;;;120.03;112.63;;;5.50;99.90;;;;;;12370814;28;20471;-35
2024/01/02 06:42:55;;;;;;;119.35;111.80;;;5.40;99.90;;;;;;12360774;28;20047;-34
2024/01/02 06:48:57;;;;;;;127.20;119.32;;;5.30;99.90;;;;;;12377452;28;20078;-35
2024/01/02 06:54:59;;;;;;;137.68;129.00;;;5.30;99.90;;;;;;12369404;28;20050;-35
2024/01/02 07:01:01;;;;;;;136.65;128.07;;;5.20;99.90;;;;;;12360796;28;20073;-34
2024/01/02 07:07:03;;;;;;;137.40;128.80;;;5.20;99.90;;;;;;12370358;28;20099;-35
2024/01/02 07:13:05;;;;;;;127.55;119.40;;;5.10;99.90;;;;;;12357288;28;21316;-34
2024/01/02 07:19:07;;;;;;;141.18;132.38;;;5.20;99.90;;;;;;12367828;28;20046;-34
2024/01/02 07:25:09;;;;;;;149.43;140.07;;;5.10;99.90;;;;;;12360768;28;20212;-34
2024/01/02 07:31:11;;;;;;;161.20;151.25;;;5.10;99.90;;;;;;12358247;28;20062;-35
2024/01/02 07:37:12;;;;;;;161.13;151.38;;;5.20;99.90;;;;;;12370790;28;20489;-34
2024/01/02 07:43:14;;;;;;;161.55;151.75;;;5.20;99.90;;;;;;12346450;28;20074;-35
2024/01/02 07:49:16;;;;;;;159.98;150.40;;;5.20;99.90;;;;;;12360292;28;20086;-34
2024/01/02 07:55:19;;;;;;;166.32;156.40;;;5.40;99.90;;;;;;12369004;28;20144;-34
2024/01/02 08:01:21;;;;;;;162.75;152.90;;;5.60;99.90;;;;;;12376375;28;20061;-35
2024/01/02 08:07:22;;;;;;;170.02;159.52;;;5.60;99.90;;;;;;12367825;28;20058;-34
2024/01/02 08:13:25;;;;;;;168.32;157.93;;;5.70;99.90;;;;;;12372130;28;20081;-35
2024/01/02 08:19:27;;;;;;;180.32;169.52;;;5.70;99.90;;;;;;12373231;28;20089;-35
2024/01/02 08:25:29;;;;;;;184.93;173.77;;;5.90;99.90;;;;;;12369282;28;20058;-35
2024/01/02 08:31:31;;;;;;;185.70;174.63;;;6.10;99.90;;;;;;12369308;28;20050;-35
2024/01/02 08:37:33;;;;;;;188.50;177.15;;;6.20;99.90;;;;;;12371662;28;20054;-35
2024/01/02 08:43:34;;;;;;;200.43;188.55;;;6.30;99.90;;;;;;12367395;28;20047;-35
2024/01/02 08:49:36;;;;;;;203.27;191.30;;;6.40;99.90;;;;;;12369180;28;20057;-35
2024/01/02 08:55:40;;;;;;;217.10;204.48;;;6.50;99.90;;;;;;12371613;28;20054;-35
2024/01/02 09:01:42;;;;;;;207.43;195.03;;;6.60;99.90;;;;;;12373796;28;20043;-35
2024/01/02 09:07:44;;;;;;;213.57;200.93;;;6.80;99.90;;;;;;12374406;28;20051;-35
2024/01/02 09:13:45;;;;;;;214.73;202.30;;;6.90;99.90;;;;;;12379777;28;20046;-35
2024/01/02 09:19:47;;;;;;;222.52;209.60;;;7.10;99.90;;;;;;12367679;28;20129;-35
2024/01/02 09:25:51;;;;;;;225.07;212.02;;;7.20;99.90;;;;;;12365387;28;20062;-35
2024/01/02 09:31:53;;;;;;;222.27;209.40;;;7.30;99.90;;;;;;12386903;28;20117;-35
2024/01/02 09:37:56;;;;;;;231.70;218.52;;;7.50;99.90;;;;;;12369873;28;20569;-35
2024/01/02 09:44:22;;;;;;;233.85;220.63;;;7.80;99.90;;;;;;12362276;28;20435;-36
2024/01/02 09:50:34;;;;;;;234.90;221.38;;;8.10;99.90;;;;;;12367778;28;20070;-35
2024/01/02 09:56:50;;;;;;;215.80;203.27;;;8.30;99.90;;;;;;12357180;28;20050;-35
2024/01/02 10:03:26;;;;;;;234.50;220.82;;;8.50;99.90;;;;;;12359439;28;20042;-36
2024/01/02 10:09:35;;;;;;;241.13;227.15;;;8.60;99.90;;;;;;12384214;28;20064;-34
2024/01/02 10:16:04;;;;;;;241.73;227.77;;;8.70;99.90;;;;;;12366207;28;20083;-34
2024/01/02 10:22:31;;;;;;;239.98;226.23;;;8.90;99.90;;;;;;12361784;28;20537;-35
2024/01/02 10:28:36;;;;;;;251.43;237.07;;;9.00;99.90;;;;;;12370132;28;20061;-35
2024/01/02 10:34:56;;;;;;;260.10;245.02;;;9.10;99.90;;;;;;12367346;28;20063;-35
2024/01/02 10:41:10;;;;;;;256.55;241.90;;;9.30;99.90;;;;;;12368017;28;20058;-35
2024/01/02 10:47:29;;;;;;;266.35;251.25;;;9.40;99.90;;;;;;12392775;28;20563;-35
2024/01/02 10:53:37;;;;;;;253.63;239.00;;;9.50;99.90;;;;;;12365472;28;20065;-35
2024/01/02 10:59:51;;;;;;;255.35;240.80;;;9.60;99.90;;;;;;12363162;28;20145;-35
2024/01/02 11:06:10;;;;;;;280.87;264.67;;;9.70;99.90;;;;;;12388895;28;20057;-35
2024/01/02 11:12:18;;;;;;;297.50;280.52;;;9.70;99.90;;;;;;12372469;28;20107;-35
2024/01/02 11:18:21;;;;;;;301.92;284.40;;;9.80;99.90;;;;;;12403025;28;20054;-35
2024/01/02 11:24:27;;;;;;;290.50;273.70;;;9.80;99.90;;;;;;12373667;28;20129;-35
2024/01/02 11:30:34;;;;;;;315.02;296.58;;;9.80;99.90;;;;;;12374865;28;20057;-35
2024/01/02 11:37:08;;;;;;;300.17;282.55;;;9.80;99.90;;;;;;12378872;28;20085;-35
2024/01/02 11:43:27;;;;;;;307.80;289.88;;;9.90;99.90;;;;;;12359915;28;20055;-35
2024/01/02 11:49:30;;;;;;;311.02;293.02;;;10.00;99.90;;;;;;12369541;28;20067;-35
2024/01/02 11:55:50;;;;;;;317.30;298.63;;;10.00;99.90;;;;;;12370123;28;20043;-35
2024/01/02 12:02:12;;;;;;;313.80;295.25;;;10.00;99.90;;;;;;12360952;28;20539;-35
2024/01/02 12:08:21;;;;;;;331.30;311.52;;;10.00;99.90;;;;;;12375507;28;20065;-34
2024/01/02 12:14:51;;;;;;;326.33;306.77;;;10.00;99.90;;;;;;12374580;28;20074;-35
2024/01/02 12:21:09;;;;;;;323.58;304.17;;;9.90;99.90;;;;;;12364978;28;20062;-35
2024/01/02 12:27:16;;;;;;;315.38;296.60;;;10.00;99.90;;;;;;12363872;28;20494;-35
2024/01/02 12:33:36;;;;;;;308.02;289.70;;;10.00;99.90;;;;;;12354994;28;20470;-35
2024/01/02 12:39:42;;;;;;;305.48;287.42;;;10.00;99.90;;;;;;12365857;28;20050;-35
2024/01/02 12:45:51;;;;;;;298.95;281.27;;;10.10;99.90;;;;;;12373514;28;20054;-35
2024/01/02 12:52:03;;;;;;;298.98;281.50;;;10.10;99.90;;;;;;12363728;28;20065;-35
2024/01/02 12:58:05;;;;;;;310.58;292.30;;;10.10;99.90;;;;;;12361766;28;20047;-35
2024/01/02 13:04:14;;;;;;;307.40;289.42;;;10.00;99.90;;;;;;12362193;28;20546;-36
2024/01/02 13:10:23;;;;;;;309.70;291.95;;;10.00;99.90;;;;;;12368844;28;20478;-35
2024/01/02 13:16:25;;;;;;;310.40;292.60;;;10.00;99.90;;;;;;12370614;28;20053;-35
2024/01/02 13:22:27;;;;;;;292.75;276.23;;;10.00;99.90;;;;;;12365191;28;20050;-34
2024/01/02 13:28:29;;;;;;;294.20;277.63;;;10.00;99.90;;;;;;12372082;28;20085;-35
2024/01/02 13:34:31;;;;;;;297.35;280.60;;;10.00;99.90;;;;;;12386158;28;20051;-35
2024/01/02 13:40:33;;;;;;;286.40;270.40;;;10.00;99.90;;;;;;12368912;28;20628;-35
2024/01/02 13:46:36;;;;;;;283.60;267.67;;;10.00;99.90;;;;;;12373812;28;20058;-35
2024/01/02 13:52:40;;;;;;;267.05;251.95;;;9.90;99.90;;;;;;12370832;28;20142;-36
2024/01/02 13:59:05;;;;;;;271.70;256.17;;;10.00;99.90;;;;;;12372773;28;20043;-35
2024/01/02 14:05:08;;;;;;;260.63;245.70;;;9.90;99.90;;;;;;12371459;28;20042;-36
2024/01/02 14:11:10;;;;;;;242.90;229.02;;;9.90;99.90;;;;;;12365464;28;20054;-36
2024/01/02 14:17:39;;;;;;;273.48;257.70;;;9.90;99.90;;;;;;12393218;28;20058;-35
2024/01/02 14:24:00;;;;;;;221.30;208.52;;;9.80;99.90;;;;;;12378403;28;20327;-36
2024/01/02 14:30:21;;;;;;;224.20;211.00;;;9.80;99.90;;;;;;12377606;28;20069;-35
2024/01/02 14:36:38;;;;;;;221.63;208.50;;;9.80;99.90;;;;;;12366820;28;20096;-35
2024/01/02 14:42:57;;;;;;;230.52;216.95;;;9.70;99.90;;;;;;12375438;28;20478;-35
2024/01/02 14:49:42;;;;;;;226.80;213.32;;;9.70;99.90;;;;;;12375534;28;20082;-35
2024/01/02 14:56:02;;;;;;;225.68;212.23;;;9.60;99.90;;;;;;12380050;28;20054;-35
2024/01/02 15:02:13;;;;;;;208.32;195.90;;;9.50;99.90;;;;;;12377997;28;20393;-35
2024/01/02 15:08:23;;;;;;;213.02;200.38;;;9.50;99.90;;;;;;12372526;28;20093;-35
2024/01/02 15:14:52;;;;;;;212.50;199.82;;;9.40;99.90;;;;;;12365219;28;20509;-35
2024/01/02 15:21:19;;;;;;;192.07;180.50;;;9.30;99.90;;;;;;12393082;28;20050;-35
2024/01/02 15:27:42;;;;;;;201.73;189.63;;;9.30;99.90;;;;;;12366588;28;20061;-35
2024/01/02 15:34:09;;;;;;;212.77;200.02;;;9.20;99.90;;;;;;12362827;28;20078;-35
2024/01/02 15:40:26;;;;;;;206.30;193.98;;;9.00;99.90;;;;;;12367491;28;20051;-35
2024/01/02 15:46:49;;;;;;;205.30;192.93;;;9.00;99.90;;;;;;12379613;23;20062;-80
2024/01/02 15:52:57;;;;;;;203.02;190.90;;;9.00;99.90;;;;;;12372881;28;20054;-80
2024/01/02 15:59:25;;;;;;;192.48;180.90;;;8.90;99.90;;;;;;12389193;28;20046;-80
2024/01/02 16:05:49;;;;;;;172.68;162.23;;;8.90;99.90;;;;;;12405617;28;20050;-81
2024/01/02 16:12:18;;;;;;;171.52;161.15;;;8.90;99.90;;;;;;12398426;28;20053;-80
2024/01/02 16:19:04;;;;;;;187.45;176.25;;;8.90;99.90;;;;;;12403084;28;20053;-79
2024/01/02 16:25:11;;;;;;;181.07;170.05;;;8.90;99.90;;;;;;12391848;28;20058;-84
2024/01/02 16:31:46;;;;;;;181.00;170.20;;;8.80;99.90;;;;;;12417668;28;20069;-85
2024/01/02 16:38:08;;;;;;;195.63;184.10;;;8.80;99.90;;;;;;12416776;28;20043;-85
2024/01/02 16:44:24;;;;;;;215.40;202.90;;;8.80;99.90;;;;;;12409832;28;20395;-87
2024/01/02 16:50:26;;;;;;;188.05;176.85;;;8.70;99.90;;;;;;12412084;28;20530;-84
2024/01/02 16:56:35;;;;;;;188.48;177.25;;;8.70;99.90;;;;;;12408935;28;20129;-85
2024/01/02 17:02:37;;;;;;;182.65;171.75;;;8.70;99.90;;;;;;12400751;28;20078;-86
2024/01/02 17:08:42;;;;;;;185.95;174.85;;;8.70;99.90;;;;;;12415878;28;20046;-87
2024/01/02 17:14:45;;;;;;;166.73;156.85;;;8.70;99.90;;;;;;12403944;28;20050;-84
2024/01/02 17:20:52;;;;;;;179.38;168.75;;;8.80;99.90;;;;;;12431530;28;20042;-85
2024/01/02 17:26:56;;;;;;;176.23;165.63;;;8.70;99.90;;;;;;12430685;28;20077;-84
2024/01/02 17:33:00;;;;;;;172.73;162.23;;;8.70;99.90;;;;;;12415286;28;20103;-86
2024/01/02 17:39:02;;;;;;;180.65;169.90;;;8.70;99.90;;;;;;12392690;28;20103;-87
2024/01/02 17:45:20;;;;;;;193.02;181.52;;;8.80;99.90;;;;;;12378850;28;20069;-82
2024/01/02 17:51:26;;;;;;;171.98;161.57;;;8.80;99.90;;;;;;12394835;28;20050;-80
2024/01/02 17:57:33;;;;;;;178.38;167.73;;;8.80;99.90;;;;;;12391013;28;20051;-80
2024/01/02 18:03:43;;;;;;;182.63;171.75;;;8.80;99.90;;;;;;12381103;28;20057;-80
2024/01/02 18:09:57;;;;;;;181.77;170.98;;;8.80;99.90;;;;;;12406063;28;20047;-81
2024/01/02 18:16:08;;;;;;;204.33;192.27;;;8.80;99.90;;;;;;12412658;28;20047;-80
2024/01/02 18:22:33;;;;;;;198.27;186.57;;;8.80;99.90;;;;;;12382517;28;20136;-82
2024/01/02 18:28:39;;;;;;;187.52;176.30;;;8.80;99.90;;;;;;12396131;28;20069;-79
2024/01/02 18:35:09;;;;;;;194.52;182.88;;;8.90;99.90;;;;;;12393374;28;20050;-80
2024/01/02 18:41:22;;;;;;;172.55;162.00;;;8.90;99.90;;;;;;12395275;28;20057;-81
2024/01/02 18:47:53;;;;;;;188.82;177.57;;;8.90;99.90;;;;;;12382848;28;20088;-79
2024/01/02 18:54:23;;;;;;;185.32;174.02;;;8.90;99.90;;;;;;12383293;28;20046;-87
2024/01/02 19:00:25;;;;;;;185.95;174.75;;;9.00;99.90;;;;;;12372047;28;20059;-88
2024/01/02 19:06:27;;;;;;;208.35;195.93;;;9.00;99.90;;;;;;12392802;28;20051;-87
2024/01/02 19:12:30;;;;;;;190.37;178.77;;;9.00;99.90;;;;;;12381690;28;20050;-84
2024/01/02 19:18:33;;;;;;;188.82;177.27;;;9.00;99.90;;;;;;12389109;28;20061;-86
2024/01/02 19:24:36;;;;;;;192.57;180.88;;;9.10;99.90;;;;;;12373412;28;20054;-87
2024/01/02 19:30:53;;;;;;;202.43;190.10;;;9.10;99.90;;;;;;12410986;28;20525;-86
2024/01/02 19:36:55;;;;;;;170.73;160.05;;;9.10;99.90;;;;;;12387427;28;20062;-87
2024/01/02 19:42:57;;;;;;;177.68;166.80;;;9.20;99.90;;;;;;12380049;28;20054;-86
2024/01/02 19:49:00;;;;;;;172.85;162.20;;;9.20;99.90;;;;;;12383713;28;20046;-88
2024/01/02 19:55:02;;;;;;;176.25;165.27;;;9.30;99.90;;;;;;12391252;28;20069;-87
2024/01/02 20:01:04;;;;;;;187.23;175.77;;;9.30;99.90;;;;;;12378170;28;20053;-85
2024/01/02 20:07:09;;;;;;;170.40;159.95;;;9.40;99.90;;;;;;12395532;28;20050;-85
2024/01/02 20:13:12;;;;;;;165.73;155.10;;;9.40;99.90;;;;;;12406824;28;20089;-86
2024/01/02 20:19:23;;;;;;;165.85;155.50;;;9.40;99.90;;;;;;12437767;28;20517;-87
2024/01/02 20:25:50;;;;;;;158.85;148.73;;;9.50;99.90;;;;;;12391625;28;20987;-87
2024/01/02 20:31:53;;;;;;;143.43;134.43;;;9.60;99.90;;;;;;12407108;28;20047;-87
2024/01/02 20:37:57;;;;;;;151.10;141.40;;;9.70;99.90;;;;;;12461882;28;20077;-87
2024/01/02 20:43:59;;;;;;;151.83;141.97;;;9.80;99.90;;;;;;12387927;28;20051;-88
2024/01/02 20:50:03;;;;;;;154.00;143.90;;;9.90;99.90;;;;;;12393185;28;20061;-87
2024/01/02 20:56:07;;;;;;;155.50;145.27;;;9.90;99.90;;;;;;12401369;28;20525;-87
2024/01/02 21:02:16;;;;;;;;;;;10.00;99.90;;;;;;12400765;28;20049;-88
2024/01/02 21:08:34;;;;;;;147.77;137.82;;;10.10;99.90;;;;;;12394666;28;20009;-88
2024/01/02 21:14:38;;;;;;;147.43;137.32;;;10.20;99.90;;;;;;12415128;28;20051;-82
2024/01/02 21:20:40;;;;;;;144.87;135.07;;;10.40;99.90;;;;;;12404961;28;20054;-82
2024/01/02 21:26:45;;;;;;;154.68;143.90;;;10.40;99.90;;;;;;12400916;28;20047;-82
2024/01/02 21:32:47;;;;;;;140.05;130.43;;;10.50;99.90;;;;;;12413115;28;20062;-85
2024/01/02 21:38:49;;;;;;;141.35;131.52;;;10.40;99.90;;;;;;12365767;28;20042;-82
2024/01/02 21:44:52;;;;;;;153.00;142.02;;;10.50;99.90;;;;;;12398703;28;20406;-82
2024/01/02 21:51:05;;;;;;;148.13;137.60;;;10.50;99.90;;;;;;12404278;28;20133;-84
2024/01/02 21:57:08;;;;;;;136.32;126.65;;;10.50;99.90;;;;;;12392930;28;20072;-86
2024/01/02 22:03:11;;;;;;;139.27;129.35;;;10.50;99.90;;;;;;12390665;28;20061;-82
2024/01/02 22:09:24;;;;;;;139.90;129.80;;;10.40;99.90;;;;;;12397476;28;20054;-82
2024/01/02 22:15:30;;;;;;;139.88;129.68;;;10.40;99.90;;;;;;12389732;28;20119;-81
2024/01/02 22:21:38;;;;;;;139.63;129.77;;;10.20;99.90;;;;;;12415288;28;20051;-81
2024/01/02 22:27:43;;;;;;;136.15;126.60;;;10.40;99.90;;;;;;12388086;28;20108;-89
2024/01/02 22:33:48;;;;;;;135.18;125.82;;;10.50;99.90;;;;;;12417147;28;20163;-88
2024/01/02 22:39:57;;;;;;;137.52;128.02;;;10.60;99.90;;;;;;12407324;28;20103;-87
2024/01/02 22:45:59;;;;;;;144.77;134.93;;;10.70;99.90;;;;;;12410144;28;20045;-88
2024/01/02 22:52:01;;;;;;;150.95;141.20;;;10.70;99.90;;;;;;12410012;28;20085;-88
2024/01/02 22:58:03;;;;;;;149.52;140.13;;;10.70;99.90;;;;;;12429529;28;20060;-85
2024/01/02 23:04:05;;;;;;;144.57;135.88;;;10.60;99.90;;;;;;12434335;28;20042;-87
2024/01/02 23:10:12;;;;;;;140.15;131.95;;;10.50;99.90;;;;;;12422760;28;20114;-87
2024/01/02 23:16:14;;;;;;;143.23;134.95;;;10.50;99.90;;;;;;12441572;28;20054;-87
2024/01/02 23:22:16;;;;;;;140.88;132.68;;;10.40;99.90;;;;;;12426876;28;20058;-87
2024/01/02 23:28:44;;;;;;;140.35;132.20;;;10.50;99.90;;;;;;12432991;28;20046;-86
2024/01/02 23:34:46;;;;;;;141.32;133.27;;;10.50;99.90;;;;;;12431410;28;20043;-86
2024/01/02 23:40:48;;;;;;;140.27;132.45;;;10.50;99.90;;;;;;12406285;28;20057;-88
2024/01/02 23:46:51;;;;;;;139.13;131.48;;;10.50;99.90;;;;;;12414854;28;20056;-88
2024/01/02 23:53:02;;;;;;;129.43;122.28;;;10.50;99.90;;;;;;12430450;28;20072;-86
2024/01/02 23:59:05;;;;;;;129.07;122.07;;;10.20;99.90;;;;;;12422253;28;20034;-88
